METAR Data

Data at: 1214 UTC 24 May 2022

METAR for:KSFZ (Pawtucket/NC State A, RI, US)
Text:KSFZ 241156Z AUTO 07008KT 10SM CLR 13/04 A3034 RMK AO2 SLP273 T01280044 10139 20117 52012 $
Temperature: 12.8°C ( 55°F)
Dewpoint: 4.4°C ( 40°F) [RH = 57%]
Pressure (altimeter):30.34 inches Hg (1027.5 mb) [Sea level pressure: 1027.3 mb]
Winds:from the ENE (70 degrees) at 9 MPH (8 knots; 4.1 m/s)
Visibility:10 or more sm (16+ km)
Ceiling:at least 12,000 feet AGL
Clouds:sky clear below 12,000 feet AGL
QC Flag:automated observation with no human augmentation; SOME DATA ABOVE MAY BE INACCURATE!!!"$" is an indication the sensor requires maintenance.